sensor_id;sensor_type;location;lat;lon;timestamp;P1;durP1;ratioP1;P2;durP2;ratioP2
54683;SDS011;40582;53.100;6.686;2022-09-20T00:01:09;15.48;;;3.20;;
54683;SDS011;40582;53.100;6.686;2022-09-20T00:03:38;21.23;;;3.67;;
54683;SDS011;40582;53.100;6.686;2022-09-20T00:06:06;18.40;;;3.03;;
54683;SDS011;40582;53.100;6.686;2022-09-20T00:08:33;20.83;;;3.05;;
54683;SDS011;40582;53.100;6.686;2022-09-20T00:11:00;13.93;;;2.53;;
54683;SDS011;40582;53.100;6.686;2022-09-20T00:13:27;13.07;;;2.60;;
54683;SDS011;40582;53.100;6.686;2022-09-20T00:15:53;12.27;;;2.53;;
54683;SDS011;40582;53.100;6.686;2022-09-20T00:18:19;21.73;;;2.80;;
54683;SDS011;40582;53.100;6.686;2022-09-20T00:20:45;18.17;;;2.55;;
54683;SDS011;40582;53.100;6.686;2022-09-20T00:23:13;17.83;;;2.72;;
54683;SDS011;40582;53.100;6.686;2022-09-20T00:25:39;16.63;;;2.88;;
54683;SDS011;40582;53.100;6.686;2022-09-20T00:28:05;13.55;;;2.60;;
54683;SDS011;40582;53.100;6.686;2022-09-20T00:30:32;13.57;;;2.47;;
54683;SDS011;40582;53.100;6.686;2022-09-20T00:32:58;14.88;;;2.42;;
54683;SDS011;40582;53.100;6.686;2022-09-20T00:35:24;13.32;;;2.38;;
54683;SDS011;40582;53.100;6.686;2022-09-20T00:37:50;15.40;;;2.88;;
54683;SDS011;40582;53.100;6.686;2022-09-20T00:40:17;13.88;;;2.58;;
54683;SDS011;40582;53.100;6.686;2022-09-20T00:42:45;10.25;;;2.28;;
54683;SDS011;40582;53.100;6.686;2022-09-20T00:45:21;19.05;;;2.45;;
54683;SDS011;40582;53.100;6.686;2022-09-20T00:47:54;11.68;;;2.13;;
54683;SDS011;40582;53.100;6.686;2022-09-20T00:50:28;13.57;;;3.03;;
54683;SDS011;40582;53.100;6.686;2022-09-20T00:55:43;11.45;;;2.33;;
54683;SDS011;40582;53.100;6.686;2022-09-20T00:58:15;10.05;;;2.17;;
54683;SDS011;40582;53.100;6.686;2022-09-20T01:00:42;11.15;;;2.28;;
54683;SDS011;40582;53.100;6.686;2022-09-20T01:03:09;13.32;;;2.80;;
54683;SDS011;40582;53.100;6.686;2022-09-20T01:05:36;15.90;;;2.58;;
54683;SDS011;40582;53.100;6.686;2022-09-20T01:08:04;7.00;;;1.88;;
54683;SDS011;40582;53.100;6.686;2022-09-20T01:10:31;12.75;;;2.38;;
54683;SDS011;40582;53.100;6.686;2022-09-20T01:12:57;12.68;;;2.67;;
54683;SDS011;40582;53.100;6.686;2022-09-20T01:15:23;9.88;;;2.33;;
54683;SDS011;40582;53.100;6.686;2022-09-20T01:17:52;15.77;;;2.65;;
54683;SDS011;40582;53.100;6.686;2022-09-20T01:28:23;9.05;;;2.22;;
54683;SDS011;40582;53.100;6.686;2022-09-20T01:30:53;11.18;;;2.50;;
54683;SDS011;40582;53.100;6.686;2022-09-20T01:33:35;9.18;;;2.13;;
54683;SDS011;40582;53.100;6.686;2022-09-20T01:36:03;7.05;;;2.38;;
54683;SDS011;40582;53.100;6.686;2022-09-20T01:38:41;7.80;;;2.00;;
54683;SDS011;40582;53.100;6.686;2022-09-20T01:43:49;14.93;;;2.35;;
54683;SDS011;40582;53.100;6.686;2022-09-20T01:46:29;12.40;;;2.58;;
54683;SDS011;40582;53.100;6.686;2022-09-20T02:02:29;12.88;;;2.88;;
54683;SDS011;40582;53.100;6.686;2022-09-20T02:29:50;13.48;;;2.20;;
54683;SDS011;40582;53.100;6.686;2022-09-20T02:32:45;16.67;;;2.75;;
54683;SDS011;40582;53.100;6.686;2022-09-20T02:37:59;11.02;;;2.13;;
54683;SDS011;40582;53.100;6.686;2022-09-20T02:41:01;12.93;;;2.33;;
54683;SDS011;40582;53.100;6.686;2022-09-20T02:49:31;14.90;;;3.17;;
54683;SDS011;40582;53.100;6.686;2022-09-20T02:55:04;13.73;;;2.58;;
54683;SDS011;40582;53.100;6.686;2022-09-20T03:00:19;9.75;;;2.30;;
54683;SDS011;40582;53.100;6.686;2022-09-20T03:08:57;9.13;;;2.28;;
54683;SDS011;40582;53.100;6.686;2022-09-20T03:11:31;12.70;;;2.25;;
54683;SDS011;40582;53.100;6.686;2022-09-20T03:19:23;10.37;;;2.00;;
54683;SDS011;40582;53.100;6.686;2022-09-20T03:27:18;13.77;;;2.50;;
54683;SDS011;40582;53.100;6.686;2022-09-20T03:30:17;11.93;;;2.20;;
54683;SDS011;40582;53.100;6.686;2022-09-20T03:39:21;13.20;;;2.28;;
54683;SDS011;40582;53.100;6.686;2022-09-20T03:52:55;9.55;;;2.22;;
54683;SDS011;40582;53.100;6.686;2022-09-20T04:04:05;16.58;;;3.00;;
54683;SDS011;40582;53.100;6.686;2022-09-20T04:12:44;12.77;;;2.30;;
54683;SDS011;40582;53.100;6.686;2022-09-20T04:18:50;14.13;;;2.70;;
54683;SDS011;40582;53.100;6.686;2022-09-20T04:24:11;13.32;;;2.65;;
54683;SDS011;40582;53.100;6.686;2022-09-20T04:27:02;11.70;;;2.33;;
54683;SDS011;40582;53.100;6.686;2022-09-20T04:29:43;11.30;;;2.50;;
54683;SDS011;40582;53.100;6.686;2022-09-20T04:32:27;14.48;;;2.50;;
54683;SDS011;40582;53.100;6.686;2022-09-20T04:35:15;9.75;;;2.25;;
54683;SDS011;40582;53.100;6.686;2022-09-20T04:38:04;17.67;;;2.80;;
54683;SDS011;40582;53.100;6.686;2022-09-20T04:49:54;10.05;;;2.22;;
54683;SDS011;40582;53.100;6.686;2022-09-20T05:12:05;13.02;;;3.30;;
54683;SDS011;40582;53.100;6.686;2022-09-20T05:15:05;16.42;;;3.35;;
54683;SDS011;40582;53.100;6.686;2022-09-20T05:20:41;8.38;;;2.03;;
54683;SDS011;40582;53.100;6.686;2022-09-20T05:26:09;14.90;;;2.58;;
54683;SDS011;40582;53.100;6.686;2022-09-20T05:31:42;12.45;;;3.20;;
54683;SDS011;40582;53.100;6.686;2022-09-20T05:43:10;10.63;;;2.45;;
54683;SDS011;40582;53.100;6.686;2022-09-20T05:45:47;14.07;;;2.63;;
54683;SDS011;40582;53.100;6.686;2022-09-20T05:56:16;14.02;;;2.70;;
54683;SDS011;40582;53.100;6.686;2022-09-20T05:59:06;12.63;;;2.28;;
54683;SDS011;40582;53.100;6.686;2022-09-20T06:04:17;13.10;;;2.72;;
54683;SDS011;40582;53.100;6.686;2022-09-20T06:06:57;8.77;;;2.00;;
54683;SDS011;40582;53.100;6.686;2022-09-20T06:12:16;16.08;;;2.70;;
54683;SDS011;40582;53.100;6.686;2022-09-20T06:17:52;11.90;;;2.20;;
54683;SDS011;40582;53.100;6.686;2022-09-20T06:23:14;13.73;;;2.17;;
54683;SDS011;40582;53.100;6.686;2022-09-20T06:25:47;11.60;;;2.35;;
54683;SDS011;40582;53.100;6.686;2022-09-20T06:28:21;16.42;;;2.50;;
54683;SDS011;40582;53.100;6.686;2022-09-20T06:31:02;13.20;;;2.10;;
54683;SDS011;40582;53.100;6.686;2022-09-20T06:33:31;14.23;;;2.25;;
54683;SDS011;40582;53.100;6.686;2022-09-20T06:36:01;21.98;;;2.53;;
54683;SDS011;40582;53.100;6.686;2022-09-20T06:38:51;11.02;;;2.25;;
54683;SDS011;40582;53.100;6.686;2022-09-20T06:41:59;6.18;;;2.03;;
54683;SDS011;40582;53.100;6.686;2022-09-20T06:44:25;5.75;;;2.03;;
54683;SDS011;40582;53.100;6.686;2022-09-20T06:46:50;13.13;;;2.20;;
54683;SDS011;40582;53.100;6.686;2022-09-20T06:49:20;10.57;;;2.35;;
54683;SDS011;40582;53.100;6.686;2022-09-20T06:51:46;15.00;;;2.38;;
54683;SDS011;40582;53.100;6.686;2022-09-20T06:54:18;10.20;;;2.22;;
54683;SDS011;40582;53.100;6.686;2022-09-20T06:56:45;14.60;;;2.53;;
54683;SDS011;40582;53.100;6.686;2022-09-20T06:59:13;8.65;;;2.08;;
54683;SDS011;40582;53.100;6.686;2022-09-20T07:01:39;10.98;;;1.80;;
54683;SDS011;40582;53.100;6.686;2022-09-20T07:04:05;10.60;;;2.13;;
54683;SDS011;40582;53.100;6.686;2022-09-20T07:06:31;12.05;;;2.78;;
54683;SDS011;40582;53.100;6.686;2022-09-20T07:08:57;9.65;;;1.88;;
54683;SDS011;40582;53.100;6.686;2022-09-20T07:11:23;8.90;;;1.55;;
54683;SDS011;40582;53.100;6.686;2022-09-20T07:13:53;12.65;;;2.05;;
54683;SDS011;40582;53.100;6.686;2022-09-20T07:16:20;7.10;;;1.52;;
54683;SDS011;40582;53.100;6.686;2022-09-20T07:18:46;8.15;;;1.85;;
54683;SDS011;40582;53.100;6.686;2022-09-20T07:21:13;7.68;;;1.60;;
54683;SDS011;40582;53.100;6.686;2022-09-20T07:23:41;10.50;;;2.10;;
54683;SDS011;40582;53.100;6.686;2022-09-20T07:28:44;9.63;;;1.67;;
54683;SDS011;40582;53.100;6.686;2022-09-20T07:31:10;10.38;;;2.00;;
54683;SDS011;40582;53.100;6.686;2022-09-20T07:33:36;12.68;;;2.67;;
54683;SDS011;40582;53.100;6.686;2022-09-20T07:36:01;7.68;;;2.03;;
54683;SDS011;40582;53.100;6.686;2022-09-20T07:38:27;7.18;;;1.67;;
54683;SDS011;40582;53.100;6.686;2022-09-20T07:40:56;10.95;;;2.05;;
54683;SDS011;40582;53.100;6.686;2022-09-20T07:43:24;20.27;;;2.22;;
54683;SDS011;40582;53.100;6.686;2022-09-20T07:45:51;6.25;;;2.05;;
54683;SDS011;40582;53.100;6.686;2022-09-20T07:48:22;10.77;;;3.20;;
54683;SDS011;40582;53.100;6.686;2022-09-20T07:50:54;9.48;;;2.80;;
54683;SDS011;40582;53.100;6.686;2022-09-20T07:53:22;12.85;;;3.58;;
54683;SDS011;40582;53.100;6.686;2022-09-20T07:55:55;10.02;;;2.95;;
54683;SDS011;40582;53.100;6.686;2022-09-20T07:58:21;8.80;;;2.78;;
54683;SDS011;40582;53.100;6.686;2022-09-20T08:00:51;5.95;;;2.22;;
54683;SDS011;40582;53.100;6.686;2022-09-20T08:03:18;7.32;;;2.22;;
54683;SDS011;40582;53.100;6.686;2022-09-20T08:05:43;7.10;;;1.98;;
54683;SDS011;40582;53.100;6.686;2022-09-20T08:08:09;7.43;;;1.73;;
54683;SDS011;40582;53.100;6.686;2022-09-20T08:10:35;9.10;;;2.20;;
54683;SDS011;40582;53.100;6.686;2022-09-20T08:13:04;3.95;;;1.67;;
54683;SDS011;40582;53.100;6.686;2022-09-20T08:15:30;3.65;;;1.52;;
54683;SDS011;40582;53.100;6.686;2022-09-20T08:17:56;10.45;;;1.70;;
54683;SDS011;40582;53.100;6.686;2022-09-20T08:20:21;4.15;;;1.58;;
54683;SDS011;40582;53.100;6.686;2022-09-20T08:22:47;3.38;;;0.93;;
54683;SDS011;40582;53.100;6.686;2022-09-20T08:25:13;8.50;;;1.83;;
54683;SDS011;40582;53.100;6.686;2022-09-20T08:27:41;5.47;;;1.65;;
54683;SDS011;40582;53.100;6.686;2022-09-20T08:30:08;7.50;;;1.55;;
54683;SDS011;40582;53.100;6.686;2022-09-20T08:32:36;7.97;;;1.42;;
54683;SDS011;40582;53.100;6.686;2022-09-20T08:35:02;6.35;;;1.73;;
54683;SDS011;40582;53.100;6.686;2022-09-20T08:37:28;10.50;;;1.23;;
54683;SDS011;40582;53.100;6.686;2022-09-20T08:39:54;11.45;;;1.67;;
54683;SDS011;40582;53.100;6.686;2022-09-20T08:42:25;4.57;;;1.98;;
54683;SDS011;40582;53.100;6.686;2022-09-20T08:44:57;7.95;;;1.90;;
54683;SDS011;40582;53.100;6.686;2022-09-20T08:47:27;5.32;;;1.17;;
54683;SDS011;40582;53.100;6.686;2022-09-20T08:49:59;3.80;;;1.45;;
54683;SDS011;40582;53.100;6.686;2022-09-20T08:52:30;8.65;;;1.88;;
54683;SDS011;40582;53.100;6.686;2022-09-20T08:54:59;8.60;;;1.48;;
54683;SDS011;40582;53.100;6.686;2022-09-20T08:57:26;6.47;;;1.48;;
54683;SDS011;40582;53.100;6.686;2022-09-20T08:59:57;10.43;;;1.80;;
54683;SDS011;40582;53.100;6.686;2022-09-20T09:02:28;8.98;;;1.85;;
54683;SDS011;40582;53.100;6.686;2022-09-20T09:04:55;5.88;;;1.80;;
54683;SDS011;40582;53.100;6.686;2022-09-20T09:07:21;10.40;;;1.77;;
54683;SDS011;40582;53.100;6.686;2022-09-20T09:09:50;12.10;;;2.00;;
54683;SDS011;40582;53.100;6.686;2022-09-20T09:12:25;13.13;;;2.10;;
54683;SDS011;40582;53.100;6.686;2022-09-20T09:14:57;7.22;;;1.80;;
54683;SDS011;40582;53.100;6.686;2022-09-20T09:17:50;8.18;;;1.70;;
54683;SDS011;40582;53.100;6.686;2022-09-20T09:20:18;9.55;;;1.50;;
54683;SDS011;40582;53.100;6.686;2022-09-20T09:22:47;8.45;;;1.70;;
54683;SDS011;40582;53.100;6.686;2022-09-20T09:25:30;8.57;;;1.85;;
54683;SDS011;40582;53.100;6.686;2022-09-20T09:28:02;6.40;;;1.50;;
54683;SDS011;40582;53.100;6.686;2022-09-20T09:30:35;8.73;;;1.67;;
54683;SDS011;40582;53.100;6.686;2022-09-20T09:33:22;11.65;;;1.80;;
54683;SDS011;40582;53.100;6.686;2022-09-20T09:38:36;6.47;;;1.52;;
54683;SDS011;40582;53.100;6.686;2022-09-20T09:41:05;2.72;;;0.90;;
54683;SDS011;40582;53.100;6.686;2022-09-20T09:43:56;5.35;;;1.00;;
54683;SDS011;40582;53.100;6.686;2022-09-20T09:46:24;3.97;;;1.02;;
54683;SDS011;40582;53.100;6.686;2022-09-20T09:49:05;3.58;;;1.35;;
54683;SDS011;40582;53.100;6.686;2022-09-20T09:51:36;3.90;;;1.50;;
54683;SDS011;40582;53.100;6.686;2022-09-20T09:54:02;6.85;;;1.67;;
54683;SDS011;40582;53.100;6.686;2022-09-20T09:56:44;5.10;;;1.20;;
54683;SDS011;40582;53.100;6.686;2022-09-20T10:05:05;3.13;;;1.17;;
54683;SDS011;40582;53.100;6.686;2022-09-20T10:07:46;2.55;;;0.82;;
54683;SDS011;40582;53.100;6.686;2022-09-20T10:10:26;6.10;;;1.50;;
54683;SDS011;40582;53.100;6.686;2022-09-20T10:16:02;4.30;;;1.13;;
54683;SDS011;40582;53.100;6.686;2022-09-20T10:19:00;7.30;;;1.20;;
54683;SDS011;40582;53.100;6.686;2022-09-20T10:21:49;5.72;;;1.50;;
54683;SDS011;40582;53.100;6.686;2022-09-20T10:37:22;10.95;;;1.73;;
54683;SDS011;40582;53.100;6.686;2022-09-20T10:40:15;7.90;;;1.63;;
54683;SDS011;40582;53.100;6.686;2022-09-20T10:42:53;6.43;;;1.80;;
54683;SDS011;40582;53.100;6.686;2022-09-20T10:48:47;6.00;;;1.27;;
54683;SDS011;40582;53.100;6.686;2022-09-20T10:56:51;5.82;;;1.40;;
54683;SDS011;40582;53.100;6.686;2022-09-20T10:59:32;11.38;;;2.20;;
54683;SDS011;40582;53.100;6.686;2022-09-20T11:10:37;7.75;;;1.33;;
54683;SDS011;40582;53.100;6.686;2022-09-20T11:21:05;13.45;;;1.95;;
54683;SDS011;40582;53.100;6.686;2022-09-20T11:29:26;7.97;;;1.63;;
54683;SDS011;40582;53.100;6.686;2022-09-20T11:32:00;4.93;;;1.30;;
54683;SDS011;40582;53.100;6.686;2022-09-20T11:37:37;12.77;;;1.90;;
54683;SDS011;40582;53.100;6.686;2022-09-20T11:40:15;11.15;;;1.65;;
54683;SDS011;40582;53.100;6.686;2022-09-20T11:42:44;12.15;;;2.50;;
54683;SDS011;40582;53.100;6.686;2022-09-20T11:45:12;12.63;;;2.10;;
54683;SDS011;40582;53.100;6.686;2022-09-20T11:47:39;15.32;;;2.50;;
54683;SDS011;40582;53.100;6.686;2022-09-20T11:58:51;8.15;;;1.95;;
54683;SDS011;40582;53.100;6.686;2022-09-20T12:01:27;8.38;;;1.45;;
54683;SDS011;40582;53.100;6.686;2022-09-20T12:04:01;4.55;;;1.23;;
54683;SDS011;40582;53.100;6.686;2022-09-20T12:06:43;7.78;;;1.55;;
54683;SDS011;40582;53.100;6.686;2022-09-20T12:09:23;6.80;;;1.30;;
54683;SDS011;40582;53.100;6.686;2022-09-20T12:12:26;8.82;;;1.95;;
54683;SDS011;40582;53.100;6.686;2022-09-20T12:15:01;10.57;;;1.20;;
54683;SDS011;40582;53.100;6.686;2022-09-20T12:28:50;14.18;;;2.00;;
54683;SDS011;40582;53.100;6.686;2022-09-20T12:39:29;8.05;;;1.55;;
54683;SDS011;40582;53.100;6.686;2022-09-20T12:42:00;9.98;;;1.80;;
54683;SDS011;40582;53.100;6.686;2022-09-20T12:47:22;6.15;;;1.60;;
54683;SDS011;40582;53.100;6.686;2022-09-20T12:49:57;4.93;;;1.38;;
54683;SDS011;40582;53.100;6.686;2022-09-20T12:52:47;8.75;;;1.55;;
54683;SDS011;40582;53.100;6.686;2022-09-20T12:55:29;8.88;;;1.65;;
54683;SDS011;40582;53.100;6.686;2022-09-20T13:11:43;8.30;;;1.13;;
54683;SDS011;40582;53.100;6.686;2022-09-20T13:14:11;8.63;;;1.67;;
54683;SDS011;40582;53.100;6.686;2022-09-20T13:16:56;5.22;;;1.38;;
54683;SDS011;40582;53.100;6.686;2022-09-20T13:24:46;5.50;;;1.10;;
54683;SDS011;40582;53.100;6.686;2022-09-20T13:27:58;6.10;;;1.50;;
54683;SDS011;40582;53.100;6.686;2022-09-20T13:32:41;6.35;;;1.10;;
54683;SDS011;40582;53.100;6.686;2022-09-20T13:38:04;5.60;;;1.23;;
54683;SDS011;40582;53.100;6.686;2022-09-20T13:40:35;7.88;;;1.60;;
54683;SDS011;40582;53.100;6.686;2022-09-20T13:43:25;9.63;;;1.55;;
54683;SDS011;40582;53.100;6.686;2022-09-20T13:45:59;6.00;;;1.48;;
54683;SDS011;40582;53.100;6.686;2022-09-20T13:48:32;5.93;;;1.45;;
54683;SDS011;40582;53.100;6.686;2022-09-20T13:50:58;8.77;;;1.70;;
54683;SDS011;40582;53.100;6.686;2022-09-20T13:53:25;7.25;;;1.38;;
54683;SDS011;40582;53.100;6.686;2022-09-20T13:55:52;7.55;;;1.48;;
54683;SDS011;40582;53.100;6.686;2022-09-20T13:58:23;16.08;;;1.67;;
54683;SDS011;40582;53.100;6.686;2022-09-20T14:00:59;6.00;;;1.02;;
54683;SDS011;40582;53.100;6.686;2022-09-20T14:03:28;6.28;;;1.42;;
54683;SDS011;40582;53.100;6.686;2022-09-20T14:05:58;4.68;;;1.20;;
54683;SDS011;40582;53.100;6.686;2022-09-20T14:11:05;6.15;;;1.60;;
54683;SDS011;40582;53.100;6.686;2022-09-20T14:13:38;12.35;;;1.88;;
54683;SDS011;40582;53.100;6.686;2022-09-20T14:16:06;7.93;;;1.98;;
54683;SDS011;40582;53.100;6.686;2022-09-20T14:18:33;7.35;;;1.63;;
54683;SDS011;40582;53.100;6.686;2022-09-20T14:21:00;14.98;;;1.60;;
54683;SDS011;40582;53.100;6.686;2022-09-20T14:23:27;10.40;;;1.63;;
54683;SDS011;40582;53.100;6.686;2022-09-20T14:26:07;7.72;;;1.20;;
54683;SDS011;40582;53.100;6.686;2022-09-20T14:28:50;8.70;;;1.45;;
54683;SDS011;40582;53.100;6.686;2022-09-20T14:31:17;6.28;;;1.70;;
54683;SDS011;40582;53.100;6.686;2022-09-20T14:33:53;7.55;;;1.50;;
54683;SDS011;40582;53.100;6.686;2022-09-20T14:36:23;7.55;;;1.60;;
54683;SDS011;40582;53.100;6.686;2022-09-20T14:38:52;7.97;;;1.40;;
54683;SDS011;40582;53.100;6.686;2022-09-20T14:41:25;5.82;;;1.58;;
54683;SDS011;40582;53.100;6.686;2022-09-20T14:43:56;5.45;;;1.15;;
54683;SDS011;40582;53.100;6.686;2022-09-20T14:46:41;5.18;;;1.17;;
54683;SDS011;40582;53.100;6.686;2022-09-20T14:49:49;6.10;;;1.30;;
54683;SDS011;40582;53.100;6.686;2022-09-20T14:57:38;7.50;;;1.30;;
54683;SDS011;40582;53.100;6.686;2022-09-20T15:00:15;9.07;;;1.48;;
54683;SDS011;40582;53.100;6.686;2022-09-20T15:02:43;7.22;;;1.40;;
54683;SDS011;40582;53.100;6.686;2022-09-20T15:05:23;5.70;;;1.40;;
54683;SDS011;40582;53.100;6.686;2022-09-20T15:07:51;7.45;;;1.45;;
54683;SDS011;40582;53.100;6.686;2022-09-20T15:10:18;7.20;;;1.90;;
54683;SDS011;40582;53.100;6.686;2022-09-20T15:12:44;9.00;;;1.58;;
54683;SDS011;40582;53.100;6.686;2022-09-20T15:15:13;9.05;;;1.70;;
54683;SDS011;40582;53.100;6.686;2022-09-20T15:17:41;7.57;;;1.50;;
54683;SDS011;40582;53.100;6.686;2022-09-20T15:20:17;8.20;;;1.67;;
54683;SDS011;40582;53.100;6.686;2022-09-20T15:22:46;11.85;;;1.67;;
54683;SDS011;40582;53.100;6.686;2022-09-20T15:25:16;8.23;;;1.52;;
54683;SDS011;40582;53.100;6.686;2022-09-20T15:27:45;7.10;;;1.65;;
54683;SDS011;40582;53.100;6.686;2022-09-20T15:30:12;8.38;;;1.58;;
54683;SDS011;40582;53.100;6.686;2022-09-20T15:32:40;9.50;;;1.83;;
54683;SDS011;40582;53.100;6.686;2022-09-20T15:35:06;7.03;;;1.33;;
54683;SDS011;40582;53.100;6.686;2022-09-20T15:37:33;6.95;;;1.33;;
54683;SDS011;40582;53.100;6.686;2022-09-20T15:39:58;6.15;;;1.65;;
54683;SDS011;40582;53.100;6.686;2022-09-20T15:42:24;6.70;;;1.88;;
54683;SDS011;40582;53.100;6.686;2022-09-20T15:44:50;5.00;;;1.38;;
54683;SDS011;40582;53.100;6.686;2022-09-20T15:47:16;6.32;;;1.52;;
54683;SDS011;40582;53.100;6.686;2022-09-20T15:49:41;7.35;;;1.42;;
54683;SDS011;40582;53.100;6.686;2022-09-20T15:52:11;3.90;;;0.93;;
54683;SDS011;40582;53.100;6.686;2022-09-20T15:54:37;7.80;;;1.83;;
54683;SDS011;40582;53.100;6.686;2022-09-20T15:57:03;9.52;;;1.10;;
54683;SDS011;40582;53.100;6.686;2022-09-20T15:59:29;6.10;;;1.20;;
54683;SDS011;40582;53.100;6.686;2022-09-20T16:01:57;7.28;;;1.33;;
54683;SDS011;40582;53.100;6.686;2022-09-20T16:04:23;9.68;;;1.58;;
54683;SDS011;40582;53.100;6.686;2022-09-20T16:06:50;4.00;;;1.25;;
54683;SDS011;40582;53.100;6.686;2022-09-20T16:09:17;7.97;;;1.63;;
54683;SDS011;40582;53.100;6.686;2022-09-20T16:11:43;4.38;;;1.50;;
54683;SDS011;40582;53.100;6.686;2022-09-20T16:14:09;5.45;;;1.20;;
54683;SDS011;40582;53.100;6.686;2022-09-20T16:16:35;5.30;;;1.20;;
54683;SDS011;40582;53.100;6.686;2022-09-20T16:19:01;11.70;;;1.75;;
54683;SDS011;40582;53.100;6.686;2022-09-20T16:21:45;4.60;;;1.40;;
54683;SDS011;40582;53.100;6.686;2022-09-20T16:24:18;5.72;;;1.38;;
54683;SDS011;40582;53.100;6.686;2022-09-20T16:26:46;6.50;;;1.38;;
54683;SDS011;40582;53.100;6.686;2022-09-20T16:29:12;8.85;;;1.42;;
54683;SDS011;40582;53.100;6.686;2022-09-20T16:34:41;6.88;;;1.52;;
54683;SDS011;40582;53.100;6.686;2022-09-20T16:37:01;7.78;;;1.27;;
54683;SDS011;40582;53.100;6.686;2022-09-20T16:39:32;6.60;;;1.30;;
54683;SDS011;40582;53.100;6.686;2022-09-20T16:42:02;9.07;;;1.77;;
54683;SDS011;40582;53.100;6.686;2022-09-20T16:44:33;9.38;;;1.50;;
54683;SDS011;40582;53.100;6.686;2022-09-20T16:47:00;8.35;;;1.67;;
54683;SDS011;40582;53.100;6.686;2022-09-20T16:49:26;6.85;;;1.55;;
54683;SDS011;40582;53.100;6.686;2022-09-20T16:51:52;10.90;;;1.73;;
54683;SDS011;40582;53.100;6.686;2022-09-20T16:54:18;8.80;;;1.40;;
54683;SDS011;40582;53.100;6.686;2022-09-20T16:56:45;7.53;;;1.65;;
54683;SDS011;40582;53.100;6.686;2022-09-20T16:59:12;6.72;;;1.70;;
54683;SDS011;40582;53.100;6.686;2022-09-20T17:01:40;9.32;;;1.92;;
54683;SDS011;40582;53.100;6.686;2022-09-20T17:04:06;8.88;;;1.45;;
54683;SDS011;40582;53.100;6.686;2022-09-20T17:06:33;6.07;;;1.25;;
54683;SDS011;40582;53.100;6.686;2022-09-20T17:09:01;6.80;;;1.80;;
54683;SDS011;40582;53.100;6.686;2022-09-20T17:11:32;8.68;;;1.77;;
54683;SDS011;40582;53.100;6.686;2022-09-20T17:14:00;9.38;;;1.63;;
54683;SDS011;40582;53.100;6.686;2022-09-20T17:16:28;7.57;;;1.88;;
54683;SDS011;40582;53.100;6.686;2022-09-20T17:21:34;8.50;;;1.98;;
54683;SDS011;40582;53.100;6.686;2022-09-20T17:24:02;7.80;;;1.60;;
54683;SDS011;40582;53.100;6.686;2022-09-20T17:26:30;7.40;;;1.70;;
54683;SDS011;40582;53.100;6.686;2022-09-20T17:28:57;6.60;;;1.50;;
54683;SDS011;40582;53.100;6.686;2022-09-20T17:31:29;6.80;;;1.88;;
54683;SDS011;40582;53.100;6.686;2022-09-20T17:33:57;9.43;;;1.90;;
54683;SDS011;40582;53.100;6.686;2022-09-20T17:36:30;5.63;;;1.60;;
54683;SDS011;40582;53.100;6.686;2022-09-20T17:38:57;9.13;;;1.70;;
54683;SDS011;40582;53.100;6.686;2022-09-20T17:41:25;7.70;;;1.92;;
54683;SDS011;40582;53.100;6.686;2022-09-20T17:43:52;12.98;;;1.70;;
54683;SDS011;40582;53.100;6.686;2022-09-20T17:46:29;10.68;;;1.77;;
54683;SDS011;40582;53.100;6.686;2022-09-20T17:49:00;6.20;;;1.83;;
54683;SDS011;40582;53.100;6.686;2022-09-20T17:51:27;7.90;;;1.98;;
54683;SDS011;40582;53.100;6.686;2022-09-20T17:53:54;10.85;;;1.92;;
54683;SDS011;40582;53.100;6.686;2022-09-20T17:56:20;15.32;;;2.70;;
54683;SDS011;40582;53.100;6.686;2022-09-20T17:59:02;11.07;;;2.40;;
54683;SDS011;40582;53.100;6.686;2022-09-20T18:01:30;5.60;;;1.73;;
54683;SDS011;40582;53.100;6.686;2022-09-20T18:03:57;5.97;;;1.90;;
54683;SDS011;40582;53.100;6.686;2022-09-20T18:08:53;7.78;;;1.75;;
54683;SDS011;40582;53.100;6.686;2022-09-20T18:11:30;11.98;;;2.08;;
54683;SDS011;40582;53.100;6.686;2022-09-20T18:14:01;7.60;;;2.05;;
54683;SDS011;40582;53.100;6.686;2022-09-20T18:16:28;12.85;;;2.20;;
54683;SDS011;40582;53.100;6.686;2022-09-20T18:18:57;17.58;;;2.30;;
54683;SDS011;40582;53.100;6.686;2022-09-20T18:21:27;9.75;;;2.40;;
54683;SDS011;40582;53.100;6.686;2022-09-20T18:23:54;9.52;;;2.08;;
54683;SDS011;40582;53.100;6.686;2022-09-20T18:26:22;10.90;;;2.28;;
54683;SDS011;40582;53.100;6.686;2022-09-20T18:28:59;13.77;;;2.38;;
54683;SDS011;40582;53.100;6.686;2022-09-20T18:31:33;11.50;;;2.42;;
54683;SDS011;40582;53.100;6.686;2022-09-20T18:34:16;8.20;;;2.33;;
54683;SDS011;40582;53.100;6.686;2022-09-20T18:36:48;11.32;;;2.47;;
54683;SDS011;40582;53.100;6.686;2022-09-20T18:39:20;12.52;;;1.95;;
54683;SDS011;40582;53.100;6.686;2022-09-20T18:41:50;8.68;;;1.83;;
54683;SDS011;40582;53.100;6.686;2022-09-20T18:44:17;11.45;;;2.03;;
54683;SDS011;40582;53.100;6.686;2022-09-20T18:46:44;11.52;;;2.03;;
54683;SDS011;40582;53.100;6.686;2022-09-20T18:49:10;6.80;;;1.60;;
54683;SDS011;40582;53.100;6.686;2022-09-20T18:51:39;7.80;;;1.73;;
54683;SDS011;40582;53.100;6.686;2022-09-20T18:54:05;11.90;;;2.80;;
54683;SDS011;40582;53.100;6.686;2022-09-20T18:56:39;9.57;;;2.35;;
54683;SDS011;40582;53.100;6.686;2022-09-20T18:59:09;7.60;;;1.92;;
54683;SDS011;40582;53.100;6.686;2022-09-20T19:07:42;11.93;;;3.07;;
54683;SDS011;40582;53.100;6.686;2022-09-20T19:13:10;7.82;;;2.17;;
54683;SDS011;40582;53.100;6.686;2022-09-20T19:21:32;14.23;;;2.28;;
54683;SDS011;40582;53.100;6.686;2022-09-20T19:26:47;8.85;;;2.17;;
54683;SDS011;40582;53.100;6.686;2022-09-20T19:29:16;11.85;;;3.13;;
54683;SDS011;40582;53.100;6.686;2022-09-20T19:31:42;17.10;;;4.70;;
54683;SDS011;40582;53.100;6.686;2022-09-20T19:34:13;14.65;;;5.30;;
54683;SDS011;40582;53.100;6.686;2022-09-20T19:39:34;24.73;;;7.20;;
54683;SDS011;40582;53.100;6.686;2022-09-20T19:50:28;30.63;;;9.32;;
54683;SDS011;40582;53.100;6.686;2022-09-20T19:53:12;18.60;;;7.63;;
54683;SDS011;40582;53.100;6.686;2022-09-20T19:55:39;22.70;;;8.20;;
54683;SDS011;40582;53.100;6.686;2022-09-20T19:58:11;32.25;;;10.63;;
54683;SDS011;40582;53.100;6.686;2022-09-20T20:00:37;27.40;;;10.30;;
54683;SDS011;40582;53.100;6.686;2022-09-20T20:03:04;27.55;;;13.18;;
54683;SDS011;40582;53.100;6.686;2022-09-20T20:05:30;27.00;;;12.75;;
54683;SDS011;40582;53.100;6.686;2022-09-20T20:10:33;25.17;;;11.00;;
54683;SDS011;40582;53.100;6.686;2022-09-20T20:13:27;24.25;;;10.50;;
54683;SDS011;40582;53.100;6.686;2022-09-20T20:16:26;24.08;;;11.15;;
54683;SDS011;40582;53.100;6.686;2022-09-20T20:25:18;29.80;;;16.42;;
54683;SDS011;40582;53.100;6.686;2022-09-20T20:27:52;26.90;;;14.82;;
54683;SDS011;40582;53.100;6.686;2022-09-20T20:30:18;28.55;;;14.02;;
54683;SDS011;40582;53.100;6.686;2022-09-20T20:32:44;29.35;;;14.25;;
54683;SDS011;40582;53.100;6.686;2022-09-20T20:35:10;26.92;;;14.65;;
54683;SDS011;40582;53.100;6.686;2022-09-20T20:37:38;28.30;;;16.75;;
54683;SDS011;40582;53.100;6.686;2022-09-20T20:40:04;27.33;;;13.52;;
54683;SDS011;40582;53.100;6.686;2022-09-20T20:42:32;24.25;;;12.77;;
54683;SDS011;40582;53.100;6.686;2022-09-20T20:44:59;26.85;;;12.57;;
54683;SDS011;40582;53.100;6.686;2022-09-20T20:47:25;19.88;;;11.40;;
54683;SDS011;40582;53.100;6.686;2022-09-20T20:49:51;18.90;;;9.20;;
54683;SDS011;40582;53.100;6.686;2022-09-20T20:52:17;18.17;;;8.75;;
54683;SDS011;40582;53.100;6.686;2022-09-20T20:54:43;19.48;;;8.93;;
54683;SDS011;40582;53.100;6.686;2022-09-20T20:57:09;16.20;;;8.10;;
54683;SDS011;40582;53.100;6.686;2022-09-20T20:59:34;15.63;;;7.75;;
54683;SDS011;40582;53.100;6.686;2022-09-20T21:02:00;15.77;;;8.68;;
54683;SDS011;40582;53.100;6.686;2022-09-20T21:04:26;20.35;;;9.55;;